sensor_id;sensor_type;location;lat;lon;timestamp;pressure;altitude;pressure_sealevel;temperature;humidity
62978;BME280;49073;42.352;23.808;2023-03-13T00:01:48;94891.91;;;-0.52;68.96
62978;BME280;49073;42.352;23.808;2023-03-13T00:04:50;94892.72;;;-0.52;68.36
62978;BME280;49073;42.352;23.808;2023-03-13T00:07:50;94890.91;;;-0.56;67.94
62978;BME280;49073;42.352;23.808;2023-03-13T00:10:51;94884.72;;;-0.66;68.11
62978;BME280;49073;42.352;23.808;2023-03-13T00:13:56;94893.22;;;-0.79;68.82
62978;BME280;49073;42.352;23.808;2023-03-13T00:16:57;94896.13;;;-0.86;68.16
62978;BME280;49073;42.352;23.808;2023-03-13T00:19:58;94903.53;;;-0.93;69.16
62978;BME280;49073;42.352;23.808;2023-03-13T00:22:59;94899.44;;;-1.05;69.88
62978;BME280;49073;42.352;23.808;2023-03-13T00:26:07;94897.41;;;-1.13;69.60
62978;BME280;49073;42.352;23.808;2023-03-13T00:29:08;94898.06;;;-1.37;70.17
62978;BME280;49073;42.352;23.808;2023-03-13T00:32:09;94901.25;;;-1.45;70.47
62978;BME280;49073;42.352;23.808;2023-03-13T00:35:09;94903.09;;;-1.51;71.28
62978;BME280;49073;42.352;23.808;2023-03-13T00:38:10;94896.78;;;-1.39;71.49
62978;BME280;49073;42.352;23.808;2023-03-13T00:41:12;94891.66;;;-1.15;70.09
62978;BME280;49073;42.352;23.808;2023-03-13T00:44:13;94898.09;;;-1.02;69.96
62978;BME280;49073;42.352;23.808;2023-03-13T00:47:14;94890.56;;;-1.09;69.41
62978;BME280;49073;42.352;23.808;2023-03-13T00:50:14;94894.66;;;-1.32;70.13
62978;BME280;49073;42.352;23.808;2023-03-13T00:53:15;94891.75;;;-1.30;70.74
62978;BME280;49073;42.352;23.808;2023-03-13T00:56:17;94899.09;;;-1.38;70.71
62978;BME280;49073;42.352;23.808;2023-03-13T00:59:18;94900.59;;;-1.26;70.36
62978;BME280;49073;42.352;23.808;2023-03-13T01:02:19;94895.44;;;-1.37;70.71
62978;BME280;49073;42.352;23.808;2023-03-13T01:05:20;94898.31;;;-1.33;69.59
62978;BME280;49073;42.352;23.808;2023-03-13T01:08:20;94889.72;;;-1.39;70.67
62978;BME280;49073;42.352;23.808;2023-03-13T01:11:26;94899.19;;;-1.48;71.86
62978;BME280;49073;42.352;23.808;2023-03-13T01:14:27;94896.47;;;-1.33;71.29
62978;BME280;49073;42.352;23.808;2023-03-13T01:17:28;94897.50;;;-1.34;70.60
62978;BME280;49073;42.352;23.808;2023-03-13T01:20:29;94911.66;;;-1.40;70.52
62978;BME280;49073;42.352;23.808;2023-03-13T01:23:30;94912.22;;;-1.43;70.01
62978;BME280;49073;42.352;23.808;2023-03-13T01:26:30;94912.25;;;-1.48;69.98
62978;BME280;49073;42.352;23.808;2023-03-13T01:29:31;94915.13;;;-1.44;70.19
62978;BME280;49073;42.352;23.808;2023-03-13T01:32:32;94914.59;;;-1.47;70.33
62978;BME280;49073;42.352;23.808;2023-03-13T01:35:33;94903.84;;;-1.45;71.20
62978;BME280;49073;42.352;23.808;2023-03-13T01:38:34;94912.25;;;-1.48;70.30
62978;BME280;49073;42.352;23.808;2023-03-13T01:41:36;94913.31;;;-1.54;70.72
62978;BME280;49073;42.352;23.808;2023-03-13T01:44:51;94927.69;;;-1.57;70.98
62978;BME280;49073;42.352;23.808;2023-03-13T01:47:52;94921.72;;;-1.63;70.58
62978;BME280;49073;42.352;23.808;2023-03-13T01:50:54;94924.41;;;-1.78;71.46
62978;BME280;49073;42.352;23.808;2023-03-13T01:54:02;94938.00;;;-1.86;71.60
62978;BME280;49073;42.352;23.808;2023-03-13T02:00:15;94934.59;;;-1.82;71.67
62978;BME280;49073;42.352;23.808;2023-03-13T02:03:19;94939.78;;;-1.71;71.52
62978;BME280;49073;42.352;23.808;2023-03-13T02:06:20;94939.56;;;-1.75;72.43
62978;BME280;49073;42.352;23.808;2023-03-13T02:09:24;94943.16;;;-1.66;71.93
62978;BME280;49073;42.352;23.808;2023-03-13T02:15:31;94953.88;;;-1.67;71.40
62978;BME280;49073;42.352;23.808;2023-03-13T02:18:35;94949.75;;;-1.79;71.27
62978;BME280;49073;42.352;23.808;2023-03-13T02:21:38;94960.38;;;-1.59;71.69
62978;BME280;49073;42.352;23.808;2023-03-13T02:25:43;94953.31;;;-1.59;70.70
62978;BME280;49073;42.352;23.808;2023-03-13T02:28:32;94960.97;;;-1.83;70.83
62978;BME280;49073;42.352;23.808;2023-03-13T02:31:34;94967.03;;;-1.88;71.68
62978;BME280;49073;42.352;23.808;2023-03-13T02:34:37;94960.22;;;-1.84;70.91
62978;BME280;49073;42.352;23.808;2023-03-13T02:37:44;94967.28;;;-1.90;71.13
62978;BME280;49073;42.352;23.808;2023-03-13T02:40:48;94973.81;;;-1.87;70.95
62978;BME280;49073;42.352;23.808;2023-03-13T02:43:49;94973.03;;;-1.98;70.82
62978;BME280;49073;42.352;23.808;2023-03-13T02:46:51;94974.13;;;-2.14;71.03
62978;BME280;49073;42.352;23.808;2023-03-13T02:49:51;94969.44;;;-2.17;71.85
62978;BME280;49073;42.352;23.808;2023-03-13T02:53:00;94978.59;;;-2.25;71.95
62978;BME280;49073;42.352;23.808;2023-03-13T02:56:03;94981.19;;;-2.20;72.47
62978;BME280;49073;42.352;23.808;2023-03-13T02:59:04;94993.75;;;-2.32;72.76
62978;BME280;49073;42.352;23.808;2023-03-13T03:02:06;94991.41;;;-2.34;72.09
62978;BME280;49073;42.352;23.808;2023-03-13T03:05:06;94994.00;;;-2.24;72.21
62978;BME280;49073;42.352;23.808;2023-03-13T03:08:07;95004.19;;;-2.38;71.93
62978;BME280;49073;42.352;23.808;2023-03-13T03:11:08;94991.91;;;-2.53;72.05
62978;BME280;49073;42.352;23.808;2023-03-13T03:14:09;94998.19;;;-2.54;72.01
62978;BME280;49073;42.352;23.808;2023-03-13T03:17:09;95000.53;;;-2.52;72.59
62978;BME280;49073;42.352;23.808;2023-03-13T03:20:10;95010.44;;;-2.70;72.52
62978;BME280;49073;42.352;23.808;2023-03-13T03:23:11;95012.78;;;-2.58;73.06
62978;BME280;49073;42.352;23.808;2023-03-13T03:26:11;95022.69;;;-2.44;73.20
62978;BME280;49073;42.352;23.808;2023-03-13T03:29:12;95027.94;;;-2.24;73.00
62978;BME280;49073;42.352;23.808;2023-03-13T03:32:12;95033.13;;;-2.13;72.23
62978;BME280;49073;42.352;23.808;2023-03-13T03:35:13;95033.66;;;-2.16;71.61
62978;BME280;49073;42.352;23.808;2023-03-13T03:38:14;95043.84;;;-2.30;70.49
62978;BME280;49073;42.352;23.808;2023-03-13T03:41:15;95037.06;;;-2.47;71.64
62978;BME280;49073;42.352;23.808;2023-03-13T03:44:16;95040.19;;;-2.55;72.10
62978;BME280;49073;42.352;23.808;2023-03-13T03:47:16;95037.31;;;-2.69;73.32
62978;BME280;49073;42.352;23.808;2023-03-13T03:50:17;95038.34;;;-2.75;72.21
62978;BME280;49073;42.352;23.808;2023-03-13T03:53:17;95042.00;;;-2.76;71.97
62978;BME280;49073;42.352;23.808;2023-03-13T03:56:18;95050.59;;;-2.66;72.82
62978;BME280;49073;42.352;23.808;2023-03-13T03:59:19;95059.97;;;-2.75;72.15
62978;BME280;49073;42.352;23.808;2023-03-13T04:02:20;95059.75;;;-2.73;73.42
62978;BME280;49073;42.352;23.808;2023-03-13T04:05:22;95054.25;;;-2.67;72.97
62978;BME280;49073;42.352;23.808;2023-03-13T04:08:23;95063.13;;;-2.73;73.22
62978;BME280;49073;42.352;23.808;2023-03-13T04:11:24;95076.94;;;-2.88;73.84
62978;BME280;49073;42.352;23.808;2023-03-13T04:14:24;95079.03;;;-2.80;73.85
62978;BME280;49073;42.352;23.808;2023-03-13T04:17:25;95090.31;;;-2.53;74.01
62978;BME280;49073;42.352;23.808;2023-03-13T04:20:26;95086.66;;;-2.52;72.87
62978;BME280;49073;42.352;23.808;2023-03-13T04:23:28;95081.94;;;-2.50;72.64
62978;BME280;49073;42.352;23.808;2023-03-13T04:26:28;95095.22;;;-2.67;72.36
62978;BME280;49073;42.352;23.808;2023-03-13T04:29:29;95085.03;;;-2.74;73.26
62978;BME280;49073;42.352;23.808;2023-03-13T04:32:29;95102.03;;;-2.56;73.09
62978;BME280;49073;42.352;23.808;2023-03-13T04:35:30;95111.44;;;-2.44;72.73
62978;BME280;49073;42.352;23.808;2023-03-13T04:38:31;95105.97;;;-2.43;72.21
62978;BME280;49073;42.352;23.808;2023-03-13T04:41:32;95109.84;;;-2.56;72.94
62978;BME280;49073;42.352;23.808;2023-03-13T04:44:32;95115.59;;;-2.59;73.41
62978;BME280;49073;42.352;23.808;2023-03-13T04:47:33;95111.63;;;-2.72;73.29
62978;BME280;49073;42.352;23.808;2023-03-13T04:50:33;95113.19;;;-2.76;73.94
62978;BME280;49073;42.352;23.808;2023-03-13T04:53:34;95122.91;;;-2.51;73.87
62978;BME280;49073;42.352;23.808;2023-03-13T04:56:34;95120.56;;;-2.57;73.45
62978;BME280;49073;42.352;23.808;2023-03-13T04:59:35;95124.22;;;-2.58;72.87
62978;BME280;49073;42.352;23.808;2023-03-13T05:02:36;95129.69;;;-2.44;73.43
62978;BME280;49073;42.352;23.808;2023-03-13T05:05:36;95127.38;;;-2.41;72.47
62978;BME280;49073;42.352;23.808;2023-03-13T05:08:37;95139.91;;;-2.32;72.98
62978;BME280;49073;42.352;23.808;2023-03-13T05:11:37;95145.63;;;-2.41;73.77
62978;BME280;49073;42.352;23.808;2023-03-13T05:14:39;95151.38;;;-2.28;73.46
62978;BME280;49073;42.352;23.808;2023-03-13T05:17:41;95150.09;;;-2.15;73.20
62978;BME280;49073;42.352;23.808;2023-03-13T05:20:41;95160.31;;;-1.98;73.55
62978;BME280;49073;42.352;23.808;2023-03-13T05:23:42;95155.84;;;-1.82;73.63
62978;BME280;49073;42.352;23.808;2023-03-13T05:26:42;95159.00;;;-1.75;73.19
62978;BME280;49073;42.352;23.808;2023-03-13T05:29:43;95161.31;;;-1.63;73.67
62978;BME280;49073;42.352;23.808;2023-03-13T05:32:44;95160.53;;;-1.53;73.46
62978;BME280;49073;42.352;23.808;2023-03-13T05:35:45;95161.56;;;-1.49;74.49
62978;BME280;49073;42.352;23.808;2023-03-13T05:38:46;95172.00;;;-1.34;74.58
62978;BME280;49073;42.352;23.808;2023-03-13T05:41:46;95167.28;;;-1.16;73.65
62978;BME280;49073;42.352;23.808;2023-03-13T05:44:47;95169.81;;;-0.95;73.99
62978;BME280;49073;42.352;23.808;2023-03-13T05:47:47;95179.50;;;-0.96;73.80
62978;BME280;49073;42.352;23.808;2023-03-13T05:50:48;95179.75;;;-0.92;73.67
62978;BME280;49073;42.352;23.808;2023-03-13T05:53:48;95174.47;;;-0.77;73.25
62978;BME280;49073;42.352;23.808;2023-03-13T05:56:49;95172.25;;;-0.49;72.16
62978;BME280;49073;42.352;23.808;2023-03-13T05:59:51;95181.03;;;-0.29;70.66
62978;BME280;49073;42.352;23.808;2023-03-13T06:02:51;95187.50;;;-0.11;69.72
62978;BME280;49073;42.352;23.808;2023-03-13T06:05:57;95181.34;;;0.09;69.51
62978;BME280;49073;42.352;23.808;2023-03-13T06:08:58;95186.59;;;0.09;69.65
62978;BME280;49073;42.352;23.808;2023-03-13T06:11:58;95180.78;;;0.12;70.50
62978;BME280;49073;42.352;23.808;2023-03-13T06:14:59;95186.72;;;0.23;70.71
62978;BME280;49073;42.352;23.808;2023-03-13T06:17:59;95188.06;;;0.21;71.96
62978;BME280;49073;42.352;23.808;2023-03-13T06:21:01;95202.25;;;0.14;72.16
62978;BME280;49073;42.352;23.808;2023-03-13T06:24:05;95189.38;;;0.18;72.29
62978;BME280;49073;42.352;23.808;2023-03-13T06:27:06;95186.66;;;0.34;73.11
62978;BME280;49073;42.352;23.808;2023-03-13T06:30:08;95192.63;;;0.39;74.12
62978;BME280;49073;42.352;23.808;2023-03-13T06:33:10;95192.50;;;0.55;73.87
62978;BME280;49073;42.352;23.808;2023-03-13T06:36:11;95182.50;;;0.62;71.52
62978;BME280;49073;42.352;23.808;2023-03-13T06:39:11;95183.16;;;0.73;68.89
62978;BME280;49073;42.352;23.808;2023-03-13T06:42:12;95193.47;;;0.94;66.40
62978;BME280;49073;42.352;23.808;2023-03-13T06:45:13;95189.13;;;1.08;65.31
62978;BME280;49073;42.352;23.808;2023-03-13T06:48:14;95202.50;;;1.07;67.39
62978;BME280;49073;42.352;23.808;2023-03-13T06:51:16;95199.81;;;1.12;68.29
62978;BME280;49073;42.352;23.808;2023-03-13T06:54:17;95199.00;;;1.16;66.54
62978;BME280;49073;42.352;23.808;2023-03-13T06:57:17;95198.25;;;1.35;66.06
62978;BME280;49073;42.352;23.808;2023-03-13T07:00:19;95187.75;;;1.35;65.42
62978;BME280;49073;42.352;23.808;2023-03-13T07:03:19;95195.16;;;1.52;64.00
62978;BME280;49073;42.352;23.808;2023-03-13T07:06:20;95203.84;;;1.53;63.89
62978;BME280;49073;42.352;23.808;2023-03-13T07:09:20;95198.53;;;1.58;62.47
62978;BME280;49073;42.352;23.808;2023-03-13T07:12:21;95197.19;;;1.80;64.91
62978;BME280;49073;42.352;23.808;2023-03-13T07:15:21;95186.09;;;2.02;65.16
62978;BME280;49073;42.352;23.808;2023-03-13T07:18:22;95194.97;;;2.06;65.91
62978;BME280;49073;42.352;23.808;2023-03-13T07:21:22;95202.78;;;2.11;65.96
62978;BME280;49073;42.352;23.808;2023-03-13T07:24:23;95197.75;;;2.15;64.56
62978;BME280;49073;42.352;23.808;2023-03-13T07:27:24;95190.88;;;2.33;64.24
62978;BME280;49073;42.352;23.808;2023-03-13T07:30:24;95187.19;;;2.34;63.19
62978;BME280;49073;42.352;23.808;2023-03-13T07:33:25;95184.06;;;2.65;64.86
62978;BME280;49073;42.352;23.808;2023-03-13T07:36:26;95175.78;;;2.58;63.14
62978;BME280;49073;42.352;23.808;2023-03-13T07:39:27;95168.78;;;2.67;62.93
62978;BME280;49073;42.352;23.808;2023-03-13T07:42:27;95167.81;;;2.91;62.28
62978;BME280;49073;42.352;23.808;2023-03-13T07:45:28;95166.28;;;3.18;62.64
62978;BME280;49073;42.352;23.808;2023-03-13T07:48:31;95153.13;;;3.32;60.70
62978;BME280;49073;42.352;23.808;2023-03-13T07:51:32;95152.53;;;3.35;58.62
62978;BME280;49073;42.352;23.808;2023-03-13T07:54:32;95154.97;;;3.45;58.91
62978;BME280;49073;42.352;23.808;2023-03-13T07:57:33;95159.25;;;3.41;58.62
62978;BME280;49073;42.352;23.808;2023-03-13T08:00:33;95163.38;;;3.84;58.31
62978;BME280;49073;42.352;23.808;2023-03-13T08:03:34;95163.28;;;3.75;56.78
62978;BME280;49073;42.352;23.808;2023-03-13T08:06:35;95171.88;;;3.81;56.71
62978;BME280;49073;42.352;23.808;2023-03-13T08:09:35;95174.47;;;3.95;55.62
62978;BME280;49073;42.352;23.808;2023-03-13T08:12:36;95172.16;;;4.39;56.57
62978;BME280;49073;42.352;23.808;2023-03-13T08:15:37;95165.59;;;4.59;52.33
62978;BME280;49073;42.352;23.808;2023-03-13T08:18:39;95170.22;;;4.85;53.83
62978;BME280;49073;42.352;23.808;2023-03-13T08:21:40;95165.84;;;5.12;52.43
62978;BME280;49073;42.352;23.808;2023-03-13T08:24:40;95165.78;;;5.44;51.04
62978;BME280;49073;42.352;23.808;2023-03-13T08:27:41;95158.59;;;5.27;50.53
62978;BME280;49073;42.352;23.808;2023-03-13T08:30:41;95164.06;;;5.39;50.68
62978;BME280;49073;42.352;23.808;2023-03-13T08:33:43;95158.50;;;5.76;49.80
62978;BME280;49073;42.352;23.808;2023-03-13T08:36:44;95162.28;;;5.92;49.20
62978;BME280;49073;42.352;23.808;2023-03-13T08:39:44;95158.09;;;6.09;47.57
62978;BME280;49073;42.352;23.808;2023-03-13T08:42:45;95150.72;;;6.59;49.91
62978;BME280;49073;42.352;23.808;2023-03-13T08:45:45;95141.69;;;6.51;46.25
62978;BME280;49073;42.352;23.808;2023-03-13T08:48:50;95138.13;;;6.47;48.95
62978;BME280;49073;42.352;23.808;2023-03-13T08:51:51;95132.66;;;6.52;48.20
62978;BME280;49073;42.352;23.808;2023-03-13T08:54:52;95131.09;;;6.60;47.38
62978;BME280;49073;42.352;23.808;2023-03-13T08:57:52;95128.63;;;6.54;46.76
62978;BME280;49073;42.352;23.808;2023-03-13T09:00:53;95132.13;;;6.76;47.68
62978;BME280;49073;42.352;23.808;2023-03-13T09:03:54;95136.66;;;7.15;47.88
62978;BME280;49073;42.352;23.808;2023-03-13T09:06:55;95128.25;;;7.12;44.89
62978;BME280;49073;42.352;23.808;2023-03-13T09:09:56;95128.25;;;7.12;45.69
62978;BME280;49073;42.352;23.808;2023-03-13T09:12:56;95131.13;;;7.28;46.19
62978;BME280;49073;42.352;23.808;2023-03-13T09:16:02;95135.28;;;7.38;45.46
62978;BME280;49073;42.352;23.808;2023-03-13T09:19:03;95138.81;;;7.51;44.25
62978;BME280;49073;42.352;23.808;2023-03-13T09:22:04;95137.34;;;7.63;45.23
62978;BME280;49073;42.352;23.808;2023-03-13T09:25:05;95131.88;;;7.59;44.33
62978;BME280;49073;42.352;23.808;2023-03-13T09:28:05;95126.34;;;7.94;43.65
62978;BME280;49073;42.352;23.808;2023-03-13T09:34:19;95131.59;;;8.03;43.61
62978;BME280;49073;42.352;23.808;2023-03-13T09:37:22;95118.22;;;8.12;41.73
62978;BME280;49073;42.352;23.808;2023-03-13T09:40:25;95108.06;;;8.48;40.38
62978;BME280;49073;42.352;23.808;2023-03-13T09:50:01;95113.59;;;9.26;40.07
62978;BME280;49073;42.352;23.808;2023-03-13T09:53:19;95117.13;;;9.55;38.87
62978;BME280;49073;42.352;23.808;2023-03-13T09:56:27;95120.53;;;9.55;38.56
62978;BME280;49073;42.352;23.808;2023-03-13T09:59:43;95129.59;;;9.67;37.93
62978;BME280;49073;42.352;23.808;2023-03-13T10:06:20;95117.88;;;9.55;37.12
62978;BME280;49073;42.352;23.808;2023-03-13T10:09:31;95118.69;;;9.19;36.43
62978;BME280;49073;42.352;23.808;2023-03-13T10:12:40;95114.44;;;9.67;38.34
62978;BME280;49073;42.352;23.808;2023-03-13T10:15:47;95104.47;;;9.64;36.95
62978;BME280;49073;42.352;23.808;2023-03-13T10:18:54;95097.94;;;9.49;36.05
62978;BME280;49073;42.352;23.808;2023-03-13T10:21:56;95095.50;;;9.44;36.21
62978;BME280;49073;42.352;23.808;2023-03-13T10:25:03;95098.03;;;9.65;38.59
62978;BME280;49073;42.352;23.808;2023-03-13T10:28:11;95085.13;;;9.26;36.78
62978;BME280;49073;42.352;23.808;2023-03-13T10:31:21;95096.81;;;9.63;36.47
62978;BME280;49073;42.352;23.808;2023-03-13T10:34:43;95093.69;;;10.01;36.32
62978;BME280;49073;42.352;23.808;2023-03-13T10:37:44;95092.38;;;10.08;35.40
62978;BME280;49073;42.352;23.808;2023-03-13T10:40:59;95082.78;;;9.90;35.39
62978;BME280;49073;42.352;23.808;2023-03-13T10:44:11;95077.25;;;9.83;35.42
62978;BME280;49073;42.352;23.808;2023-03-13T10:47:14;95072.31;;;9.98;35.59
62978;BME280;49073;42.352;23.808;2023-03-13T10:50:22;95069.38;;;10.31;35.12
62978;BME280;49073;42.352;23.808;2023-03-13T10:56:29;95055.59;;;10.42;34.19
62978;BME280;49073;42.352;23.808;2023-03-13T10:59:30;95054.84;;;10.13;35.18
62978;BME280;49073;42.352;23.808;2023-03-13T11:02:36;95055.94;;;10.40;36.19
62978;BME280;49073;42.352;23.808;2023-03-13T11:05:40;95036.88;;;10.10;34.94
62978;BME280;49073;42.352;23.808;2023-03-13T11:08:42;95030.22;;;10.32;36.38
62978;BME280;49073;42.352;23.808;2023-03-13T11:11:48;95031.25;;;10.59;34.07
62978;BME280;49073;42.352;23.808;2023-03-13T11:14:56;95023.09;;;10.68;35.05
62978;BME280;49073;42.352;23.808;2023-03-13T11:18:14;95022.28;;;11.00;34.37
62978;BME280;49073;42.352;23.808;2023-03-13T11:21:23;95024.50;;;11.14;34.63
62978;BME280;49073;42.352;23.808;2023-03-13T11:24:43;95018.94;;;11.03;34.13
62978;BME280;49073;42.352;23.808;2023-03-13T11:32:02;95014.81;;;11.05;32.40
62978;BME280;49073;42.352;23.808;2023-03-13T11:35:59;95014.25;;;10.80;33.11
62978;BME280;49073;42.352;23.808;2023-03-13T11:39:01;95012.84;;;11.38;34.61
62978;BME280;49073;42.352;23.808;2023-03-13T11:52:10;94990.88;;;11.09;33.84
62978;BME280;49073;42.352;23.808;2023-03-13T12:01:41;94979.16;;;11.14;32.86
62978;BME280;49073;42.352;23.808;2023-03-13T12:04:54;94969.63;;;11.32;32.45
62978;BME280;49073;42.352;23.808;2023-03-13T12:08:02;94967.00;;;11.16;33.09
62978;BME280;49073;42.352;23.808;2023-03-13T12:14:15;94968.38;;;11.46;32.67
62978;BME280;49073;42.352;23.808;2023-03-13T12:17:40;94966.34;;;11.39;32.96
62978;BME280;49073;42.352;23.808;2023-03-13T12:27:22;94948.00;;;11.77;31.98
62978;BME280;49073;42.352;23.808;2023-03-13T12:30:47;94935.69;;;11.72;32.39
62978;BME280;49073;42.352;23.808;2023-03-13T12:37:08;94945.41;;;11.61;33.90
62978;BME280;49073;42.352;23.808;2023-03-13T12:40:20;94946.00;;;11.93;31.23
62978;BME280;49073;42.352;23.808;2023-03-13T12:43:34;94948.00;;;11.77;32.40
62978;BME280;49073;42.352;23.808;2023-03-13T12:46:45;94953.19;;;11.70;31.85
62978;BME280;49073;42.352;23.808;2023-03-13T12:59:31;94946.44;;;11.76;31.04
62978;BME280;49073;42.352;23.808;2023-03-13T13:02:34;94946.75;;;11.31;31.08
62978;BME280;49073;42.352;23.808;2023-03-13T13:05:35;94940.56;;;11.47;32.45
62978;BME280;49073;42.352;23.808;2023-03-13T13:08:41;94948.66;;;11.50;32.67
62978;BME280;49073;42.352;23.808;2023-03-13T13:11:45;94948.34;;;11.75;32.55
62978;BME280;49073;42.352;23.808;2023-03-13T13:21:20;94949.69;;;11.66;31.70
62978;BME280;49073;42.352;23.808;2023-03-13T13:24:46;94942.09;;;11.68;32.36
62978;BME280;49073;42.352;23.808;2023-03-13T13:27:48;94937.84;;;11.43;30.83
62978;BME280;49073;42.352;23.808;2023-03-13T13:30:51;94943.38;;;11.34;32.06
62978;BME280;49073;42.352;23.808;2023-03-13T13:33:51;94932.16;;;11.25;32.29
62978;BME280;49073;42.352;23.808;2023-03-13T13:36:53;94926.66;;;11.38;31.99
62978;BME280;49073;42.352;23.808;2023-03-13T13:43:21;94937.13;;;11.27;32.73
62978;BME280;49073;42.352;23.808;2023-03-13T13:46:27;94934.25;;;11.55;31.30
62978;BME280;49073;42.352;23.808;2023-03-13T13:49:34;94922.53;;;11.20;31.68
62978;BME280;49073;42.352;23.808;2023-03-13T13:52:39;94924.69;;;11.34;33.56
62978;BME280;49073;42.352;23.808;2023-03-13T13:55:43;94934.09;;;11.09;32.80
62978;BME280;49073;42.352;23.808;2023-03-13T13:58:44;94930.09;;;11.18;32.75
62978;BME280;49073;42.352;23.808;2023-03-13T14:01:47;94933.97;;;11.01;31.77
62978;BME280;49073;42.352;23.808;2023-03-13T14:04:55;94929.38;;;10.82;31.69
62978;BME280;49073;42.352;23.808;2023-03-13T14:08:06;94929.59;;;10.93;32.07
62978;BME280;49073;42.352;23.808;2023-03-13T14:17:15;94930.78;;;10.96;32.37
62978;BME280;49073;42.352;23.808;2023-03-13T14:20:28;94929.06;;;10.68;32.56
62978;BME280;49073;42.352;23.808;2023-03-13T14:23:34;94931.63;;;10.64;33.22
62978;BME280;49073;42.352;23.808;2023-03-13T14:26:42;94917.41;;;10.40;33.20
62978;BME280;49073;42.352;23.808;2023-03-13T14:30:03;94915.25;;;10.46;33.45
62978;BME280;49073;42.352;23.808;2023-03-13T14:33:05;94925.13;;;10.29;32.94
62978;BME280;49073;42.352;23.808;2023-03-13T14:36:06;94908.72;;;10.27;33.31
62978;BME280;49073;42.352;23.808;2023-03-13T14:39:16;94921.44;;;10.18;32.84
62978;BME280;49073;42.352;23.808;2023-03-13T14:42:18;94917.13;;;10.13;33.54
62978;BME280;49073;42.352;23.808;2023-03-13T14:45:22;94914.03;;;9.95;33.00
62978;BME280;49073;42.352;23.808;2023-03-13T14:48:32;94914.03;;;9.95;33.76
62978;BME280;49073;42.352;23.808;2023-03-13T14:51:37;94917.13;;;9.97;34.51
62978;BME280;49073;42.352;23.808;2023-03-13T14:54:52;94911.53;;;9.86;34.06
62978;BME280;49073;42.352;23.808;2023-03-13T14:57:58;94913.78;;;9.84;33.72
62978;BME280;49073;42.352;23.808;2023-03-13T15:01:11;94920.63;;;10.01;34.79
62978;BME280;49073;42.352;23.808;2023-03-13T15:04:12;94919.34;;;9.79;34.67
62978;BME280;49073;42.352;23.808;2023-03-13T15:07:13;94922.59;;;9.72;34.10
62978;BME280;49073;42.352;23.808;2023-03-13T15:10:30;94921.19;;;9.46;34.04
62978;BME280;49073;42.352;23.808;2023-03-13T15:13:34;94914.34;;;9.33;34.08
62978;BME280;49073;42.352;23.808;2023-03-13T15:16:35;94920.75;;;9.44;34.89
62978;BME280;49073;42.352;23.808;2023-03-13T15:19:35;94918.97;;;9.36;34.88
62978;BME280;49073;42.352;23.808;2023-03-13T15:22:39;94919.63;;;9.17;36.12
62978;BME280;49073;42.352;23.808;2023-03-13T15:25:40;94921.19;;;9.06;35.53
62978;BME280;49073;42.352;23.808;2023-03-13T15:28:41;94919.00;;;8.95;36.41
62978;BME280;49073;42.352;23.808;2023-03-13T15:31:41;94918.88;;;9.04;36.41
62978;BME280;49073;42.352;23.808;2023-03-13T15:34:42;94921.91;;;8.90;35.74
62978;BME280;49073;42.352;23.808;2023-03-13T15:37:42;94923.47;;;8.79;36.18
62978;BME280;49073;42.352;23.808;2023-03-13T15:40:44;94926.91;;;8.67;36.22
62978;BME280;49073;42.352;23.808;2023-03-13T15:43:45;94927.16;;;8.62;36.71
62978;BME280;49073;42.352;23.808;2023-03-13T15:46:46;94939.09;;;8.55;36.78
62978;BME280;49073;42.352;23.808;2023-03-13T15:49:47;94931.38;;;8.50;37.11
62978;BME280;49073;42.352;23.808;2023-03-13T15:52:47;94936.09;;;8.32;37.38
62978;BME280;49073;42.352;23.808;2023-03-13T15:55:49;94938.75;;;8.32;38.17
62978;BME280;49073;42.352;23.808;2023-03-13T15:58:50;94933.66;;;8.14;37.94
62978;BME280;49073;42.352;23.808;2023-03-13T16:01:51;94934.63;;;8.10;37.91
62978;BME280;49073;42.352;23.808;2023-03-13T16:04:51;94948.13;;;8.05;38.37
62978;BME280;49073;42.352;23.808;2023-03-13T16:07:52;94954.50;;;7.91;38.45
62978;BME280;49073;42.352;23.808;2023-03-13T16:10:52;94960.59;;;7.92;38.57
62978;BME280;49073;42.352;23.808;2023-03-13T16:13:53;94958.47;;;7.85;39.38
62978;BME280;49073;42.352;23.808;2023-03-13T16:16:54;94957.66;;;7.72;39.88
62978;BME280;49073;42.352;23.808;2023-03-13T16:19:55;94961.25;;;7.55;40.42
62978;BME280;49073;42.352;23.808;2023-03-13T16:22:55;94967.88;;;7.49;40.61
62978;BME280;49073;42.352;23.808;2023-03-13T16:25:57;94978.03;;;7.47;41.25
62978;BME280;49073;42.352;23.808;2023-03-13T16:28:57;94984.03;;;7.35;41.25
62978;BME280;49073;42.352;23.808;2023-03-13T16:31:58;94969.88;;;7.31;41.65
62978;BME280;49073;42.352;23.808;2023-03-13T16:34:59;94979.31;;;7.40;42.56
62978;BME280;49073;42.352;23.808;2023-03-13T16:38:00;94984.72;;;7.65;43.88
62978;BME280;49073;42.352;23.808;2023-03-13T16:41:00;94981.78;;;7.46;43.60
62978;BME280;49073;42.352;23.808;2023-03-13T16:44:01;94980.69;;;7.25;43.96
62978;BME280;49073;42.352;23.808;2023-03-13T16:47:22;94982.34;;;6.88;44.78
62978;BME280;49073;42.352;23.808;2023-03-13T16:50:27;94978.44;;;6.64;45.39
62978;BME280;49073;42.352;23.808;2023-03-13T16:53:30;94980.88;;;6.39;45.43
62978;BME280;49073;42.352;23.808;2023-03-13T16:56:37;94975.00;;;6.33;44.95
62978;BME280;49073;42.352;23.808;2023-03-13T16:59:38;94976.28;;;6.27;45.46
62978;BME280;49073;42.352;23.808;2023-03-13T17:02:38;94974.47;;;6.01;46.48
62978;BME280;49073;42.352;23.808;2023-03-13T17:05:39;94978.34;;;5.95;48.01
62978;BME280;49073;42.352;23.808;2023-03-13T17:08:39;94980.13;;;5.64;49.23
62978;BME280;49073;42.352;23.808;2023-03-13T17:11:41;94981.38;;;5.49;51.05
62978;BME280;49073;42.352;23.808;2023-03-13T17:14:42;94980.00;;;5.26;51.11
62978;BME280;49073;42.352;23.808;2023-03-13T17:17:43;94990.25;;;5.09;51.30
62978;BME280;49073;42.352;23.808;2023-03-13T17:20:50;94990.38;;;4.87;50.91
62978;BME280;49073;42.352;23.808;2023-03-13T17:23:52;94997.50;;;4.77;51.00
62978;BME280;49073;42.352;23.808;2023-03-13T17:26:52;95012.72;;;4.80;51.59